Terminal Aerodrome Forecast
Issued by NWS

Home | Current Version | Previous Version | Text Only | Print | Product List | Glossary On
Versions: 1 2 3 4 5 6 7 8 9 10 11 12 13
555
FTUS44 KMAF 240521
TAFCNM
TAF
KCNM 240521Z 2406/2506 23008KT P6SM SKC
     FM241600 25015G24KT P6SM FEW250
     FM250100 26008KT P6SM FEW250=

USA.gov is the U.S. government's official web portal to all federal, state and local government web resources and services.